Terminal Aerodrome Forecast
Issued by NWS

Home | Current Version | Previous Version | Text Only | Print | Product List | Glossary On
Versions: 1 2 3 4 5 6 7 8 9 10 11 12 13 14
000
FTAK31 PAJN 240500
TAFASI
TAF
PASI 240538Z 2406/2506 31004KT P6SM SCT025 BKN050
     FM241600 29004KT P6SM SCT050
     FM250100 30004KT P6SM SCT060=

USA.gov is the U.S. government's official web portal to all federal, state and local government web resources and services.